^^
Your Local Weather - Clay, NY Station Historical Data
Daily Summary for September 23, 2017 Units:  English    Metric   Both
« Previous Day
Next Day »
Daily Weekly Monthly Yearly Custom
  High: Low: Average:
Temperature: 84.2 °F 54.8 °F 67.3 °F
Dew Point: 64.1 °F 53.1 °F 58.5 °F
Humidity: 95% 44% 77%
Wind Speed: 3.0mph 0.0mph 0.4mph
Wind Gust: 7.0mph - -
Wind- - West
Pressure: 30.10 in 30.00 in -
Precipitation: 0.00 in    
Historical Graphs
 
 
Tabular Data for September 23, 2017
Time Temperature Dew Point Pressure Wind Wind Speed Wind Gust Humidity Rainfall Rate (Hourly) solar
00:04 57.8 °F 55.2 °F 30.04 in Calm     91% 0.00 in 0 W/m2
00:10 57.7 °F 55.1 °F 30.04 in Calm     91% 0.00 in 0 W/m2
00:16 57.7 °F 55.1 °F 30.04 in Calm     91% 0.00 in 0 W/m2
00:22 57.8 °F 55.5 °F 30.04 in Calm     92% 0.00 in 0 W/m2
00:28 57.7 °F 55.4 °F 30.04 in Calm     92% 0.00 in 0 W/m2
00:34 57.6 °F 55.3 °F 30.04 in Calm     92% 0.00 in 0 W/m2
00:40 57.5 °F 55.2 °F 30.04 in Calm     92% 0.00 in 0 W/m2
00:46 57.3 °F 55.0 °F 30.04 in Calm     92% 0.00 in 0 W/m2
00:52 57.2 °F 54.9 °F 30.04 in Calm     92% 0.00 in 0 W/m2
00:58 57.1 °F 54.8 °F 30.04 in Calm     92% 0.00 in 0 W/m2
01:04 57.1 °F 54.8 °F 30.04 in Calm     92% 0.00 in 0 W/m2
01:10 57.1 °F 54.8 °F 30.04 in Calm     92% 0.00 in 0 W/m2
01:16 57.0 °F 55.0 °F 30.04 in Calm     93% 0.00 in 0 W/m2
01:22 56.9 °F 54.9 °F 30.04 in Calm     93% 0.00 in 0 W/m2
01:28 56.8 °F 54.8 °F 30.04 in Calm     93% 0.00 in 0 W/m2
01:34 56.8 °F 54.8 °F 30.04 in Calm     93% 0.00 in 0 W/m2
01:40 56.8 °F 54.8 °F 30.04 in Calm     93% 0.00 in 0 W/m2
01:46 56.6 °F 54.6 °F 30.04 in Calm     93% 0.00 in 0 W/m2
01:52 56.6 °F 54.6 °F 30.04 in Calm     93% 0.00 in 0 W/m2
01:58 56.7 °F 54.7 °F 30.03 in Calm     93% 0.00 in 0 W/m2
02:04 56.7 °F 54.7 °F 30.03 in Calm     93% 0.00 in 0 W/m2
02:10 56.6 °F 54.6 °F 30.03 in Calm     93% 0.00 in 0 W/m2
02:16 56.6 °F 54.6 °F 30.03 in Calm     93% 0.00 in 0 W/m2
02:22 56.5 °F 54.5 °F 30.02 in Calm     93% 0.00 in 0 W/m2
02:28 56.3 °F 54.3 °F 30.03 in Calm     93% 0.00 in 0 W/m2
02:34 56.3 °F 54.3 °F 30.02 in Calm     93% 0.00 in 0 W/m2
02:40 56.4 °F 54.4 °F 30.02 in Calm     93% 0.00 in 0 W/m2
02:46 56.6 °F 54.9 °F 30.02 in Calm     94% 0.00 in 0 W/m2
02:52 56.9 °F 55.2 °F 30.02 in Calm     94% 0.00 in 0 W/m2
02:58 57.2 °F 55.5 °F 30.02 in Calm     94% 0.00 in 0 W/m2
03:04 57.3 °F 55.6 °F 30.02 in Calm     94% 0.00 in 0 W/m2
03:10 57.5 °F 55.8 °F 30.01 in Calm     94% 0.00 in 0 W/m2
03:16 57.7 °F 56.0 °F 30.01 in Calm     94% 0.00 in 0 W/m2
03:22 58.3 °F 56.6 °F 30.01 in Calm     94% 0.00 in 0 W/m2
03:28 58.6 °F 56.9 °F 30.00 in Calm     94% 0.00 in 0 W/m2
03:34 58.8 °F 57.1 °F 30.00 in Calm     94% 0.00 in 0 W/m2
03:40 59.1 °F 57.4 °F 30.01 in Calm     94% 0.00 in 0 W/m2
03:46 59.0 °F 57.3 °F 30.01 in Calm     94% 0.00 in 0 W/m2
03:52 58.8 °F 57.1 °F 30.01 in Calm     94% 0.00 in 0 W/m2
03:58 58.5 °F 56.8 °F 30.01 in Calm     94% 0.00 in 0 W/m2
04:04 58.3 °F 56.6 °F 30.01 in Calm     94% 0.00 in 0 W/m2
04:10 57.9 °F 56.2 °F 30.00 in Calm     94% 0.00 in 0 W/m2
04:16 57.7 °F 56.0 °F 30.01 in Calm     94% 0.00 in 0 W/m2
04:22 57.7 °F 56.0 °F 30.01 in Calm     94% 0.00 in 0 W/m2
04:28 57.5 °F 55.8 °F 30.01 in Calm     94% 0.00 in 0 W/m2
04:34 57.3 °F 55.6 °F 30.02 in Calm     94% 0.00 in 0 W/m2
04:40 57.5 °F 55.8 °F 30.03 in Calm     94% 0.00 in 0 W/m2
04:46 57.7 °F 56.0 °F 30.03 in Calm     94% 0.00 in 0 W/m2
04:52 57.8 °F 56.1 °F 30.03 in Calm     94% 0.00 in 0 W/m2
04:58 57.7 °F 56.0 °F 30.03 in Calm     94% 0.00 in 0 W/m2
05:04 57.5 °F 55.8 °F 30.03 in Calm     94% 0.00 in 0 W/m2
05:10 57.3 °F 55.6 °F 30.03 in Calm     94% 0.00 in 0 W/m2
05:16 57.0 °F 55.3 °F 30.03 in Calm     94% 0.00 in 0 W/m2
05:22 56.9 °F 55.2 °F 30.03 in Calm     94% 0.00 in 0 W/m2
05:28 56.8 °F 55.1 °F 30.03 in Calm     94% 0.00 in 0 W/m2
05:34 56.6 °F 54.9 °F 30.04 in Calm     94% 0.00 in 0 W/m2
05:40 56.4 °F 54.7 °F 30.04 in Calm     94% 0.00 in 0 W/m2
05:46 56.1 °F 54.4 °F 30.04 in Calm     94% 0.00 in 0 W/m2
05:52 55.8 °F 54.1 °F 30.04 in Calm     94% 0.00 in 0 W/m2
05:58 55.5 °F 53.8 °F 30.04 in Calm     94% 0.00 in 0 W/m2
06:04 55.3 °F 53.6 °F 30.04 in Calm     94% 0.00 in 0 W/m2
06:10 55.2 °F 53.5 °F 30.03 in NW 1.0 mph 1.0 mph 94% 0.00 in 0 W/m2
06:16 55.3 °F 53.6 °F 30.04 in NW 1.0 mph 1.0 mph 94% 0.00 in 0 W/m2
06:22 55.5 °F 53.8 °F 30.04 in Calm     94% 0.00 in 0 W/m2
06:28 55.5 °F 53.8 °F 30.04 in Calm     94% 0.00 in 0 W/m2
06:34 55.3 °F 53.6 °F 30.05 in Calm     94% 0.00 in 0 W/m2
06:40 55.1 °F 53.4 °F 30.04 in Calm     94% 0.00 in 0 W/m2
06:46 55.0 °F 53.3 °F 30.04 in Calm     94% 0.00 in 0 W/m2
06:52 55.0 °F 53.3 °F 30.06 in Calm     94% 0.00 in 0 W/m2
06:58 55.0 °F 53.3 °F 30.06 in Calm     94% 0.00 in 5 W/m2
07:04 54.8 °F 53.1 °F 30.06 in Calm     94% 0.00 in 9 W/m2
07:10 54.8 °F 53.1 °F 30.07 in Calm     94% 0.00 in 11 W/m2
07:16 54.9 °F 53.5 °F 30.07 in Calm     95% 0.00 in 14 W/m2
07:22 55.0 °F 53.6 °F 30.07 in Calm     95% 0.00 in 18 W/m2
07:28 55.0 °F 53.6 °F 30.08 in Calm     95% 0.00 in 21 W/m2
07:34 55.0 °F 53.6 °F 30.08 in Calm     95% 0.00 in 25 W/m2
07:40 54.9 °F 53.5 °F 30.08 in Calm     95% 0.00 in 28 W/m2
07:46 55.1 °F 53.7 °F 30.08 in Calm     95% 0.00 in 32 W/m2
07:52 55.2 °F 53.8 °F 30.09 in Calm     95% 0.00 in 33 W/m2
07:58 55.4 °F 54.0 °F 30.09 in Calm     95% 0.00 in 44 W/m2
08:04 55.9 °F 54.5 °F 30.09 in Calm     95% 0.00 in 44 W/m2
08:10 56.4 °F 55.0 °F 30.10 in Calm     95% 0.00 in 125 W/m2
08:16 57.3 °F 55.9 °F 30.10 in Calm     95% 0.00 in 47 W/m2
08:22 58.2 °F 56.8 °F 30.10 in Calm     95% 0.00 in 62 W/m2
08:28 58.6 °F 57.2 °F 30.09 in Calm     95% 0.00 in 53 W/m2
08:34 58.9 °F 57.5 °F 30.09 in NW 1.0 mph 2.0 mph 95% 0.00 in 60 W/m2
08:40 59.5 °F 58.1 °F 30.09 in NW 2.0 mph 2.0 mph 95% 0.00 in 83 W/m2
08:46 60.0 °F 58.6 °F 30.09 in South 2.0 mph 4.0 mph 95% 0.00 in 56 W/m2
08:52 60.1 °F 58.7 °F 30.10 in South 2.0 mph 2.0 mph 95% 0.00 in 77 W/m2
08:58 60.3 °F 58.9 °F 30.10 in SSW 1.0 mph 2.0 mph 95% 0.00 in 86 W/m2
09:04 60.7 °F 59.3 °F 30.10 in SSW 1.0 mph 2.0 mph 95% 0.00 in 70 W/m2
09:10 61.1 °F 59.4 °F 30.10 in SSW 1.0 mph 1.0 mph 94% 0.00 in 91 W/m2
09:16 61.8 °F 60.1 °F 30.10 in Calm   1.0 mph 94% 0.00 in 62 W/m2
09:22 62.4 °F 60.7 °F 30.10 in Calm   2.0 mph 94% 0.00 in 65 W/m2
09:28 62.8 °F 60.7 °F 30.10 in Calm   3.0 mph 93% 0.00 in 308 W/m2
09:34 63.5 °F 60.8 °F 30.10 in SSW 1.0 mph 3.0 mph 91% 0.00 in 93 W/m2
09:40 64.6 °F 60.6 °F 30.10 in SSW 2.0 mph 2.0 mph 87% 0.00 in 171 W/m2
09:46 66.4 °F 60.4 °F 30.10 in SSW 1.0 mph 2.0 mph 81% 0.00 in 427 W/m2
09:52 67.9 °F 61.5 °F 30.09 in SSW 1.0 mph 1.0 mph 80% 0.00 in 450 W/m2
09:58 68.6 °F 60.4 °F 30.10 in Calm   2.0 mph 75% 0.00 in 476 W/m2
10:04 69.0 °F 60.4 °F 30.10 in Calm     74% 0.00 in 497 W/m2
10:10 70.4 °F 62.1 °F 30.10 in Calm     75% 0.00 in 512 W/m2
10:16 70.4 °F 59.7 °F 30.10 in Calm     69% 0.00 in 529 W/m2
10:22 70.5 °F 60.6 °F 30.10 in Calm   2.0 mph 71% 0.00 in 541 W/m2
10:28 71.5 °F 61.6 °F 30.10 in West 1.0 mph 2.0 mph 71% 0.00 in 557 W/m2
10:34 70.4 °F 59.3 °F 30.10 in Calm   1.0 mph 68% 0.00 in 571 W/m2
10:40 72.3 °F 60.3 °F 30.09 in Calm     66% 0.00 in 584 W/m2
10:46 72.8 °F 60.8 °F 30.09 in Calm   2.0 mph 66% 0.00 in 598 W/m2
10:52 71.7 °F 58.9 °F 30.09 in South 1.0 mph 1.0 mph 64% 0.00 in 610 W/m2
10:58 72.1 °F 59.7 °F 30.09 in SSW 1.0 mph 3.0 mph 65% 0.00 in 624 W/m2
11:04 72.4 °F 60.0 °F 30.09 in South 1.0 mph 2.0 mph 65% 0.00 in 631 W/m2
11:10 73.9 °F 61.4 °F 30.09 in South 1.0 mph 1.0 mph 65% 0.00 in 645 W/m2
11:16 74.8 °F 60.4 °F 30.08 in Calm   1.0 mph 61% 0.00 in 650 W/m2
11:22 73.9 °F 58.2 °F 30.08 in WSW 1.0 mph 1.0 mph 58% 0.00 in 659 W/m2
11:28 74.8 °F 58.5 °F 30.08 in WSW 1.0 mph 1.0 mph 57% 0.00 in 666 W/m2
11:34 75.7 °F 59.4 °F 30.08 in Calm   3.0 mph 57% 0.00 in 677 W/m2
11:40 75.9 °F 60.5 °F 30.08 in SSW 1.0 mph 1.0 mph 59% 0.00 in 684 W/m2
11:46 76.4 °F 58.5 °F 30.08 in NW 1.0 mph 2.0 mph 54% 0.00 in 691 W/m2
11:52 76.4 °F 58.5 °F 30.08 in NW 1.0 mph 1.0 mph 54% 0.00 in 694 W/m2
11:58 77.2 °F 62.2 °F 30.07 in Calm   1.0 mph 60% 0.00 in 703 W/m2
12:04 77.3 °F 59.9 °F 30.07 in SSW 1.0 mph 1.0 mph 55% 0.00 in 707 W/m2
12:10 77.7 °F 59.7 °F 30.07 in West 1.0 mph 3.0 mph 54% 0.00 in 710 W/m2
12:16 78.4 °F 58.8 °F 30.07 in WNW 1.0 mph 3.0 mph 51% 0.00 in 714 W/m2
12:22 79.4 °F 62.3 °F 30.07 in Calm   1.0 mph 56% 0.00 in 719 W/m2
12:28 79.2 °F 60.1 °F 30.07 in North 1.0 mph 6.0 mph 52% 0.00 in 721 W/m2
12:34 79.1 °F 59.4 °F 30.07 in NW 2.0 mph 7.0 mph 51% 0.00 in 722 W/m2
12:40 78.7 °F 60.1 °F 30.07 in NNE 3.0 mph 3.0 mph 53% 0.00 in 724 W/m2
12:46 79.7 °F 61.6 °F 30.07 in NW 2.0 mph 3.0 mph 54% 0.00 in 726 W/m2
12:52 80.2 °F 59.3 °F 30.07 in NW 1.0 mph 1.0 mph 49% 0.00 in 726 W/m2
12:58 80.0 °F 60.2 °F 30.07 in Calm   1.0 mph 51% 0.00 in 724 W/m2
13:04 80.5 °F 59.6 °F 30.07 in Calm   3.0 mph 49% 0.00 in 728 W/m2
13:10 80.3 °F 57.6 °F 30.07 in NW 1.0 mph 1.0 mph 46% 0.00 in 728 W/m2
13:16 80.3 °F 59.4 °F 30.07 in North 2.0 mph 3.0 mph 49% 0.00 in 724 W/m2
13:22 81.1 °F 59.0 °F 30.07 in NNW 1.0 mph 4.0 mph 47% 0.00 in 722 W/m2
13:28 80.5 °F 59.0 °F 30.07 in NNW 3.0 mph 4.0 mph 48% 0.00 in 719 W/m2
13:34 80.7 °F 58.0 °F 30.07 in NNW 2.0 mph 3.0 mph 46% 0.00 in 715 W/m2
13:40 81.3 °F 60.9 °F 30.07 in NNE 2.0 mph 2.0 mph 50% 0.00 in 714 W/m2
13:46 81.8 °F 60.8 °F 30.07 in North 2.0 mph 2.0 mph 49% 0.00 in 707 W/m2
13:52 81.8 °F 61.9 °F 30.07 in NNW 2.0 mph 2.0 mph 51% 0.00 in 703 W/m2
13:58 81.9 °F 60.9 °F 30.06 in NW 1.0 mph 4.0 mph 49% 0.00 in 698 W/m2
14:06 82.2 °F 60.0 °F 30.06 in NNW 2.0 mph 3.0 mph 47% 0.00 in 687 W/m2
14:12 82.2 °F 60.6 °F 30.06 in NW 1.0 mph 1.0 mph 48% 0.00 in 677 W/m2
14:18 82.7 °F 61.6 °F 30.06 in NW 1.0 mph 2.0 mph 49% 0.00 in 668 W/m2
14:24 82.7 °F 62.2 °F 30.06 in North 1.0 mph 5.0 mph 50% 0.00 in 659 W/m2
14:30 83.1 °F 61.4 °F 30.06 in North 1.0 mph 3.0 mph 48% 0.00 in 652 W/m2
14:36 83.2 °F 61.5 °F 30.05 in NW 1.0 mph 3.0 mph 48% 0.00 in 647 W/m2
14:42 84.1 °F 62.3 °F 30.05 in NW 1.0 mph 1.0 mph 48% 0.00 in 638 W/m2
14:46 84.2 °F 62.4 °F 30.05 in WSW 1.0 mph 3.0 mph 48% 0.00 in 631 W/m2
14:58 83.3 °F 63.3 °F 30.05 in NW 2.0 mph 4.0 mph 51% 0.00 in 605 W/m2
15:04 83.5 °F 60.5 °F 30.04 in WSW 2.0 mph 2.0 mph 46% 0.00 in 596 W/m2
15:10 83.7 °F 62.5 °F 30.04 in WNW 1.0 mph 1.0 mph 49% 0.00 in 585 W/m2
15:16 84.0 °F 63.4 °F 30.04 in WSW 1.0 mph 2.0 mph 50% 0.00 in 571 W/m2
15:22 84.0 °F 61.6 °F 30.03 in West 1.0 mph 2.0 mph 47% 0.00 in 561 W/m2
15:28 83.9 °F 60.9 °F 30.03 in NNW 1.0 mph 2.0 mph 46% 0.00 in 547 W/m2
15:34 83.6 °F 64.1 °F 30.03 in NNW 2.0 mph 4.0 mph 52% 0.00 in 536 W/m2
15:40 84.0 °F 59.7 °F 30.03 in SSW 2.0 mph 2.0 mph 44% 0.00 in 522 W/m2
15:46 83.7 °F 60.1 °F 30.02 in SW 1.0 mph 2.0 mph 45% 0.00 in 510 W/m2
15:54 84.2 °F 63.5 °F 30.02 in NNW 1.0 mph 3.0 mph 50% 0.00 in 492 W/m2
16:00 84.1 °F 60.5 °F 30.02 in NW 1.0 mph 1.0 mph 45% 0.00 in 480 W/m2
16:06 83.9 °F 62.1 °F 30.02 in NNW 1.0 mph 3.0 mph 48% 0.00 in 464 W/m2
16:12 83.8 °F 62.0 °F 30.02 in North 1.0 mph 1.0 mph 48% 0.00 in 446 W/m2
16:18 84.1 °F 61.1 °F 30.02 in North 1.0 mph 2.0 mph 46% 0.00 in 432 W/m2
16:24 83.8 °F 61.4 °F 30.02 in NNW 1.0 mph 2.0 mph 47% 0.00 in 418 W/m2
16:30 83.9 °F 60.9 °F 30.02 in NW 1.0 mph 2.0 mph 46% 0.00 in 401 W/m2
16:36 83.8 °F 61.4 °F 30.02 in NW 1.0 mph 2.0 mph 47% 0.00 in 383 W/m2
16:42 83.5 °F 59.9 °F 30.01 in NNW 1.0 mph 3.0 mph 45% 0.00 in 367 W/m2
16:48 83.5 °F 61.1 °F 30.02 in NNW 1.0 mph 3.0 mph 47% 0.00 in 346 W/m2
16:54 83.3 °F 60.4 °F 30.02 in North 1.0 mph 2.0 mph 46% 0.00 in 329 W/m2
17:00 82.7 °F 59.8 °F 30.02 in NW 2.0 mph 3.0 mph 46% 0.00 in 311 W/m2
17:06 82.4 °F 58.9 °F 30.02 in North 2.0 mph 4.0 mph 45% 0.00 in 295 W/m2
17:12 82.1 °F 59.9 °F 30.02 in North 2.0 mph 2.0 mph 47% 0.00 in 278 W/m2
17:18 82.2 °F 59.4 °F 30.02 in NW 1.0 mph 4.0 mph 46% 0.00 in 258 W/m2
17:24 82.0 °F 59.8 °F 30.02 in NNW 1.0 mph 2.0 mph 47% 0.00 in 241 W/m2
17:30 81.6 °F 60.0 °F 30.02 in North 1.0 mph 3.0 mph 48% 0.00 in 221 W/m2
17:36 81.3 °F 59.1 °F 30.02 in North 1.0 mph 3.0 mph 47% 0.00 in 76 W/m2
17:42 80.8 °F 58.7 °F 30.02 in NW 1.0 mph 2.0 mph 47% 0.00 in 83 W/m2
17:48 80.4 °F 59.5 °F 30.02 in NW 1.0 mph 2.0 mph 49% 0.00 in 146 W/m2
17:54 80.3 °F 60.5 °F 30.02 in Calm   1.0 mph 51% 0.00 in 151 W/m2
18:00 80.0 °F 59.1 °F 30.02 in Calm     49% 0.00 in 132 W/m2
18:06 79.8 °F 59.5 °F 30.02 in Calm     50% 0.00 in 67 W/m2
18:12 79.2 °F 60.1 °F 30.02 in Calm     52% 0.00 in 26 W/m2
18:18 78.5 °F 62.0 °F 30.02 in Calm     57% 0.00 in 25 W/m2
18:24 77.9 °F 62.9 °F 30.02 in Calm     60% 0.00 in 21 W/m2
18:30 76.4 °F 63.8 °F 30.02 in Calm     65% 0.00 in 18 W/m2
18:36 74.6 °F 62.9 °F 30.02 in Calm     67% 0.00 in 14 W/m2
18:42 73.7 °F 62.9 °F 30.02 in Calm     69% 0.00 in 12 W/m2
18:48 73.0 °F 62.6 °F 30.02 in Calm     70% 0.00 in 9 W/m2
18:54 72.1 °F 61.8 °F 30.01 in Calm     70% 0.00 in 5 W/m2
19:00 71.4 °F 61.5 °F 30.01 in Calm     71% 0.00 in 0 W/m2
19:06 71.0 °F 61.9 °F 30.02 in Calm     73% 0.00 in 0 W/m2
19:12 70.6 °F 61.1 °F 30.02 in Calm     72% 0.00 in 0 W/m2
19:18 70.2 °F 61.1 °F 30.02 in Calm     73% 0.00 in 0 W/m2
19:24 69.9 °F 61.6 °F 30.02 in Calm     75% 0.00 in 0 W/m2
19:30 69.4 °F 61.5 °F 30.02 in Calm     76% 0.00 in 0 W/m2
19:36 69.1 °F 61.9 °F 30.02 in Calm     78% 0.00 in 0 W/m2
19:42 68.5 °F 61.0 °F 30.02 in Calm     77% 0.00 in 0 W/m2
19:48 68.1 °F 61.0 °F 30.02 in Calm     78% 0.00 in 0 W/m2
19:54 67.8 °F 61.0 °F 30.02 in Calm     79% 0.00 in 0 W/m2
20:00 67.5 °F 61.1 °F 30.03 in Calm     80% 0.00 in 0 W/m2
20:06 67.3 °F 61.3 °F 30.03 in Calm     81% 0.00 in 0 W/m2
20:12 67.0 °F 61.3 °F 30.03 in Calm     82% 0.00 in 0 W/m2
20:18 66.8 °F 61.1 °F 30.03 in Calm     82% 0.00 in 0 W/m2
20:24 66.6 °F 60.9 °F 30.02 in Calm     82% 0.00 in 0 W/m2
20:30 66.5 °F 60.8 °F 30.02 in Calm     82% 0.00 in 0 W/m2
20:36 66.3 °F 61.0 °F 30.03 in Calm     83% 0.00 in 0 W/m2
20:42 66.1 °F 60.8 °F 30.03 in Calm     83% 0.00 in 0 W/m2
20:48 65.8 °F 60.5 °F 30.03 in Calm     83% 0.00 in 0 W/m2
20:54 65.5 °F 60.5 °F 30.03 in Calm     84% 0.00 in 0 W/m2
21:00 65.2 °F 60.2 °F 30.03 in Calm     84% 0.00 in 0 W/m2
21:06 65.0 °F 60.0 °F 30.03 in Calm     84% 0.00 in 0 W/m2
21:12 64.9 °F 59.9 °F 30.03 in Calm     84% 0.00 in 0 W/m2
21:18 64.8 °F 60.2 °F 30.03 in Calm     85% 0.00 in 0 W/m2
21:26 64.7 °F 60.1 °F 30.04 in Calm     85% 0.00 in 0 W/m2
21:32 64.5 °F 59.9 °F 30.04 in Calm     85% 0.00 in 0 W/m2
21:38 64.3 °F 59.7 °F 30.04 in Calm     85% 0.00 in 0 W/m2
21:44 64.2 °F 59.9 °F 30.04 in Calm     86% 0.00 in 0 W/m2
21:50 64.2 °F 59.9 °F 30.04 in Calm     86% 0.00 in 0 W/m2
21:56 64.1 °F 59.8 °F 30.04 in Calm     86% 0.00 in 0 W/m2
22:02 63.8 °F 59.5 °F 30.04 in Calm     86% 0.00 in 0 W/m2
22:08 63.7 °F 59.4 °F 30.04 in Calm     86% 0.00 in 0 W/m2
22:14 63.6 °F 59.3 °F 30.04 in Calm     86% 0.00 in 0 W/m2
22:20 63.5 °F 59.6 °F 30.04 in Calm     87% 0.00 in 0 W/m2
22:26 63.5 °F 59.6 °F 30.04 in Calm     87% 0.00 in 0 W/m2
22:32 63.4 °F 59.8 °F 30.04 in Calm     88% 0.00 in 0 W/m2
22:38 63.3 °F 59.7 °F 30.04 in Calm     88% 0.00 in 0 W/m2
22:44 63.2 °F 59.6 °F 30.04 in Calm     88% 0.00 in 0 W/m2
22:50 63.0 °F 59.4 °F 30.04 in Calm     88% 0.00 in 0 W/m2
22:56 63.0 °F 59.7 °F 30.04 in Calm     89% 0.00 in 0 W/m2
23:02 63.0 °F 59.7 °F 30.04 in Calm     89% 0.00 in 0 W/m2
23:08 63.0 °F 59.7 °F 30.04 in Calm     89% 0.00 in 0 W/m2
23:18 62.8 °F 59.8 °F 30.04 in Calm     90% 0.00 in 0 W/m2
23:24 62.8 °F 59.8 °F 30.05 in Calm     90% 0.00 in 0 W/m2
23:26 62.8 °F 59.8 °F 30.05 in Calm     90% 0.00 in 0 W/m2
23:30 62.7 °F 59.7 °F 30.05 in Calm     90% 0.00 in 0 W/m2
23:34 62.6 °F 59.6 °F 30.05 in Calm     90% 0.00 in 0 W/m2
23:42 62.5 °F 59.5 °F 30.05 in Calm     90% 0.00 in 0 W/m2
23:48 62.4 °F 59.4 °F 30.05 in Calm     90% 0.00 in 0 W/m2
23:54 62.4 °F 59.4 °F 30.05 in Calm     90% 0.00 in 0 W/m2
Country Meadow, Clay, NY, USA
Compliments of Weather Underground - 2 mb